Time;durP1;ratioP1;P1;durP2;ratioP2;P2;SDS_P1;SDS_P2;PMS_P1;PMS_P2;Temp;Humidity;BMP_temperature;BMP_pressure;BME280_temperature;BME280_humidity;BME280_pressure;Samples;Min_cycle;Max_cycle;Signal;HPM_P1;HPM_P2
2023/03/18 00:02:05;;;;;;;13.93;8.73;;;16.20;73.40;;;;;;3926604;30;20141;-69
2023/03/18 00:04:48;;;;;;;11.10;8.15;;;16.20;73.40;;;;;;3927088;30;20533;-69
2023/03/18 00:07:29;;;;;;;13.05;9.02;;;16.20;73.50;;;;;;3915469;30;20063;-68
2023/03/18 00:10:11;;;;;;;10.40;7.60;;;16.20;73.50;;;;;;3915504;30;20066;-69
2023/03/18 00:12:53;;;;;;;11.02;7.30;;;16.20;73.50;;;;;;3926668;30;20518;-69
2023/03/18 00:15:34;;;;;;;9.48;7.63;;;16.20;73.50;;;;;;3912212;30;20060;-69
2023/03/18 00:18:15;;;;;;;9.95;7.97;;;16.20;73.50;;;;;;3912871;30;20571;-69
2023/03/18 00:20:59;;;;;;;10.05;7.68;;;16.20;73.50;;;;;;3915869;30;20058;-69
2023/03/18 00:23:40;;;;;;;10.77;7.90;;;16.20;73.50;;;;;;3926890;30;20117;-69
2023/03/18 00:26:21;;;;;;;;;;;16.20;73.50;;;;;;3927527;30;20522;-68
2023/03/18 00:29:02;;;;;;;10.55;7.88;;;16.20;73.70;;;;;;3927007;30;20019;-69
2023/03/18 00:31:43;;;;;;;10.27;7.90;;;16.20;74.30;;;;;;3904534;30;20105;-69
2023/03/18 00:34:24;;;;;;;11.50;7.68;;;16.20;74.00;;;;;;3915188;30;20059;-69
2023/03/18 00:37:09;;;;;;;;;;;16.20;73.80;;;;;;3904157;30;20076;-69
2023/03/18 00:39:51;;;;;;;9.88;7.30;;;16.20;73.90;;;;;;3918046;30;20057;-69
2023/03/18 00:42:37;;;;;;;11.07;8.02;;;16.10;74.70;;;;;;3918354;30;20471;-68
2023/03/18 00:45:18;;;;;;;11.50;7.72;;;16.10;74.10;;;;;;3929574;30;20133;-68
2023/03/18 00:48:01;;;;;;;13.98;7.38;;;16.10;74.00;;;;;;3917466;30;20080;-68
2023/03/18 00:50:43;;;;;;;9.20;7.25;;;16.10;73.90;;;;;;3929305;30;20054;-68
2023/03/18 00:53:26;;;;;;;10.95;7.68;;;16.10;73.90;;;;;;3918299;30;20059;-68
2023/03/18 00:56:07;;;;;;;9.07;6.90;;;16.10;73.80;;;;;;3929205;30;20066;-68
2023/03/18 00:58:51;;;;;;;9.57;7.43;;;16.10;73.90;;;;;;3918276;30;20413;-69
2023/03/18 01:01:32;;;;;;;10.65;7.45;;;16.10;74.00;;;;;;3917604;30;20190;-69
2023/03/18 01:04:13;;;;;;;12.23;7.03;;;16.10;74.20;;;;;;3915331;30;20079;-68
2023/03/18 01:06:54;;;;;;;9.43;7.07;;;16.10;74.30;;;;;;3917963;30;20066;-68
2023/03/18 01:09:38;;;;;;;9.80;7.22;;;16.10;74.30;;;;;;3918124;30;20078;-68
2023/03/18 01:12:18;;;;;;;11.60;6.70;;;16.10;74.40;;;;;;3917762;30;20073;-68
2023/03/18 01:14:59;;;;;;;10.27;6.73;;;16.10;74.50;;;;;;3918274;30;20055;-68
2023/03/18 01:17:41;;;;;;;10.23;7.88;;;16.10;74.50;;;;;;3918023;30;20054;-69
2023/03/18 01:20:23;;;;;;;8.48;7.38;;;16.10;74.50;;;;;;3907507;30;20059;-68
2023/03/18 01:23:07;;;;;;;12.20;7.20;;;16.10;74.50;;;;;;3903630;30;20075;-69
2023/03/18 01:25:51;;;;;;;10.02;7.03;;;16.10;74.50;;;;;;3903627;30;20056;-69
2023/03/18 01:28:34;;;;;;;10.85;7.63;;;16.10;74.50;;;;;;3914130;30;20064;-69
2023/03/18 01:31:15;;;;;;;11.68;8.23;;;16.10;74.50;;;;;;3903387;30;20571;-69
2023/03/18 01:33:58;;;;;;;12.05;8.50;;;16.10;74.50;;;;;;3914317;30;20199;-71
2023/03/18 01:36:41;;;;;;;11.50;8.18;;;16.10;74.50;;;;;;3911007;30;20397;-69
2023/03/18 01:39:22;;;;;;;11.23;8.15;;;16.10;74.50;;;;;;3928870;30;20160;-69
2023/03/18 01:42:05;;;;;;;12.35;8.60;;;16.10;74.60;;;;;;3927926;30;20583;-69
2023/03/18 01:44:47;;;;;;;12.48;9.20;;;16.10;74.60;;;;;;3928443;30;21118;-69
2023/03/18 01:47:28;;;;;;;11.50;9.55;;;16.00;74.60;;;;;;3917588;30;20555;-69
2023/03/18 01:50:10;;;;;;;11.15;9.15;;;16.10;74.70;;;;;;3913405;30;20056;-69
2023/03/18 01:52:56;;;;;;;13.50;10.15;;;16.00;74.80;;;;;;3903260;30;20063;-69
2023/03/18 01:55:38;;;;;;;16.83;11.15;;;16.00;74.80;;;;;;3913763;30;20402;-69
2023/03/18 01:58:24;;;;;;;16.33;9.73;;;16.10;74.90;;;;;;3902825;30;20529;-69
2023/03/18 02:01:11;;;;;;;16.77;10.48;;;16.00;74.90;;;;;;3913020;30;20190;-68
2023/03/18 02:03:54;;;;;;;11.63;10.43;;;16.00;75.00;;;;;;3903158;30;20073;-69
2023/03/18 02:06:35;;;;;;;13.82;11.38;;;16.00;75.00;;;;;;3903147;30;20057;-69
2023/03/18 02:09:16;;;;;;;16.50;11.15;;;16.00;75.00;;;;;;3916613;30;20063;-68
2023/03/18 02:12:01;;;;;;;16.63;11.60;;;16.00;75.80;;;;;;3892927;30;20060;-69
2023/03/18 02:14:45;;;;;;;16.10;11.38;;;16.00;75.00;;;;;;3912926;30;20257;-69
2023/03/18 02:17:29;;;;;;;15.38;12.55;;;16.00;75.00;;;;;;3913730;30;20130;-69
2023/03/18 02:20:33;;;;;;;17.13;12.95;;;16.00;75.30;;;;;;3917946;30;20055;-69
2023/03/18 02:23:22;;;;;;;16.80;12.57;;;16.10;75.20;;;;;;3927274;30;20113;-69
2023/03/18 02:26:08;;;;;;;14.93;12.75;;;16.10;75.20;;;;;;3902763;30;20378;-69
2023/03/18 02:28:55;;;;;;;15.95;11.85;;;16.10;75.30;;;;;;3925970;30;20059;-69
2023/03/18 02:31:37;;;;;;;16.80;13.80;;;16.20;75.20;;;;;;3917041;30;20121;-69
2023/03/18 02:34:19;;;;;;;15.75;13.35;;;16.30;75.10;;;;;;3927859;30;20070;-69
2023/03/18 02:37:00;;;;;;;18.05;14.88;;;16.30;74.90;;;;;;3902504;30;20398;-69
2023/03/18 02:39:42;;;;;;;15.90;14.20;;;16.30;74.70;;;;;;3902531;30;20223;-69
2023/03/18 02:42:27;;;;;;;;;;;16.30;75.50;;;;;;3902712;30;20074;-68
2023/03/18 02:45:19;;;;;;;15.82;12.85;;;16.40;74.70;;;;;;3915019;30;19933;-69
2023/03/18 02:48:17;;;;;;;15.93;13.60;;;16.40;74.60;;;;;;3927465;30;20213;-69
2023/03/18 02:50:58;;;;;;;18.65;14.18;;;16.40;74.50;;;;;;3916822;30;20063;-69
2023/03/18 02:53:40;;;;;;;19.23;13.93;;;16.40;74.30;;;;;;3916785;30;20070;-69
2023/03/18 02:56:22;;;;;;;21.50;13.30;;;16.40;74.40;;;;;;3913233;30;20145;-69
2023/03/18 02:59:03;;;;;;;22.92;13.73;;;16.40;74.30;;;;;;3902187;30;20056;-69
2023/03/18 03:01:48;;;;;;;22.58;14.57;;;16.50;74.40;;;;;;3901955;30;20474;-69
2023/03/18 03:04:29;;;;;;;17.00;13.25;;;16.50;75.20;;;;;;3902290;30;20060;-69
2023/03/18 03:07:11;;;;;;;14.63;13.13;;;16.50;74.30;;;;;;3902223;30;20055;-69
2023/03/18 03:09:57;;;;;;;16.75;13.48;;;16.50;74.30;;;;;;3907103;30;20063;-69
2023/03/18 03:12:38;;;;;;;17.73;13.65;;;16.50;75.10;;;;;;3916565;30;20067;-69
2023/03/18 03:15:20;;;;;;;16.92;13.10;;;16.50;74.20;;;;;;3916442;30;20067;-69
2023/03/18 03:18:08;;;;;;;17.55;13.82;;;16.50;74.20;;;;;;3905578;30;20078;-69
2023/03/18 03:20:51;;;;;;;20.35;14.43;;;16.40;74.10;;;;;;3909495;30;20063;-69
2023/03/18 03:23:33;;;;;;;23.92;15.27;;;16.40;74.10;;;;;;3927336;30;20790;-69
2023/03/18 03:26:14;;;;;;;25.70;16.13;;;16.40;74.20;;;;;;3916512;30;20105;-69
2023/03/18 03:28:55;;;;;;;21.85;15.82;;;16.40;74.30;;;;;;3911944;30;20086;-69
2023/03/18 03:31:36;;;;;;;21.58;15.77;;;16.30;74.30;;;;;;3916007;30;20075;-69
2023/03/18 03:34:20;;;;;;;20.08;15.32;;;16.30;74.70;;;;;;3916269;30;20063;-69
2023/03/18 03:37:01;;;;;;;20.23;15.07;;;16.40;74.80;;;;;;3914289;30;20056;-69
2023/03/18 03:39:43;;;;;;;19.55;15.68;;;16.40;74.60;;;;;;3903037;30;20075;-70
2023/03/18 03:42:25;;;;;;;19.67;15.70;;;16.40;74.60;;;;;;3927165;30;20141;-69
2023/03/18 03:45:07;;;;;;;22.80;14.98;;;16.50;74.50;;;;;;3914584;30;20067;-69
2023/03/18 03:47:48;;;;;;;22.33;16.25;;;16.50;75.30;;;;;;3904084;30;20067;-69
2023/03/18 03:50:31;;;;;;;20.13;15.25;;;16.50;74.30;;;;;;3916045;30;20059;-68
2023/03/18 03:53:12;;;;;;;18.50;15.02;;;16.50;75.20;;;;;;3916128;30;20063;-69
2023/03/18 03:55:53;;;;;;;21.48;15.57;;;16.50;74.30;;;;;;3898679;30;20063;-69
2023/03/18 03:58:37;;;;;;;20.15;16.20;;;16.50;74.30;;;;;;3909344;30;20064;-69
2023/03/18 04:01:18;;;;;;;23.63;16.33;;;16.50;74.30;;;;;;3915588;30;20054;-69
2023/03/18 04:04:01;;;;;;;19.60;15.10;;;16.50;74.30;;;;;;3916380;30;20063;-69
2023/03/18 04:06:46;;;;;;;18.83;15.65;;;16.50;74.20;;;;;;3918624;30;20063;-69
2023/03/18 04:09:26;;;;;;;19.50;16.23;;;16.50;74.20;;;;;;3908775;30;20397;-69
2023/03/18 04:12:09;;;;;;;20.27;15.73;;;16.50;74.30;;;;;;3919046;30;20462;-69
2023/03/18 04:14:50;;;;;;;18.45;16.23;;;16.50;74.40;;;;;;3918585;30;20063;-69
2023/03/18 04:17:32;;;;;;;22.30;16.58;;;16.50;74.50;;;;;;3918533;30;20499;-69
2023/03/18 04:20:15;;;;;;;22.70;16.52;;;16.50;74.40;;;;;;3918846;30;20627;-69
2023/03/18 04:22:58;;;;;;;21.77;16.48;;;16.60;74.30;;;;;;3919005;30;20101;-69
2023/03/18 04:25:40;;;;;;;22.02;17.30;;;16.60;74.30;;;;;;3918139;30;20189;-69
2023/03/18 04:28:21;;;;;;;22.55;17.35;;;16.60;74.20;;;;;;3918752;30;20062;-68
2023/03/18 04:31:02;;;;;;;22.85;17.23;;;16.60;74.20;;;;;;3918789;30;20108;-69
2023/03/18 04:33:43;;;;;;;23.67;17.77;;;16.60;74.20;;;;;;3918451;30;20557;-69
2023/03/18 04:36:24;;;;;;;25.45;17.25;;;16.50;74.20;;;;;;3915762;30;20435;-69
2023/03/18 04:39:09;;;;;;;22.00;17.15;;;16.60;74.40;;;;;;3918048;30;20071;-69
2023/03/18 04:41:50;;;;;;;18.73;16.17;;;16.50;74.20;;;;;;3927247;30;20074;-68
2023/03/18 04:44:31;;;;;;;21.25;16.20;;;16.60;74.20;;;;;;3927906;30;20059;-69
2023/03/18 04:47:13;;;;;;;21.58;16.55;;;16.60;74.00;;;;;;3908223;30;20145;-68
2023/03/18 04:49:54;;;;;;;24.90;17.63;;;16.60;74.00;;;;;;3918355;30;20059;-68
2023/03/18 04:52:35;;;;;;;20.87;16.13;;;16.60;74.20;;;;;;3918586;30;20055;-68
2023/03/18 04:55:19;;;;;;;23.97;17.63;;;16.60;74.10;;;;;;3917734;30;20391;-68
2023/03/18 04:58:01;;;;;;;19.27;16.77;;;16.60;74.30;;;;;;3918030;30;20058;-68
2023/03/18 05:00:46;;;;;;;20.75;16.90;;;16.60;75.20;;;;;;3918081;30;20105;-69
2023/03/18 05:03:43;;;;;;;22.65;17.17;;;16.60;74.30;;;;;;3917699;30;20109;-73
2023/03/18 05:06:28;;;;;;;26.00;16.65;;;16.60;74.30;;;;;;3917550;30;20070;-71
2023/03/18 05:09:28;;;;;;;22.20;16.20;;;16.60;74.40;;;;;;3917676;30;20447;-71
2023/03/18 05:12:14;;;;;;;22.63;17.17;;;16.60;74.50;;;;;;3903560;30;20068;-68
2023/03/18 05:14:55;;;;;;;19.45;14.70;;;16.70;74.40;;;;;;3910583;30;20517;-69
2023/03/18 05:17:36;;;;;;;18.73;15.73;;;16.70;74.20;;;;;;3903122;30;20079;-69
2023/03/18 05:20:17;;;;;;;19.95;16.08;;;16.70;74.00;;;;;;3917808;30;20088;-68
2023/03/18 05:22:59;;;;;;;21.95;14.77;;;16.70;73.90;;;;;;3908016;30;20062;-68
2023/03/18 05:25:49;;;;;;;21.60;15.65;;;16.70;73.80;;;;;;3918054;30;20071;-69
2023/03/18 05:28:33;;;;;;;21.02;14.27;;;16.70;74.70;;;;;;3917725;30;20523;-68
2023/03/18 05:31:43;;;;;;;15.93;13.73;;;16.70;73.90;;;;;;3894427;30;20059;-69
2023/03/18 05:34:25;;;;;;;17.65;14.32;;;16.80;74.00;;;;;;3917935;30;20145;-69
2023/03/18 05:37:07;;;;;;;;;;;16.80;74.00;;;;;;3907995;30;20157;-69
2023/03/18 05:39:50;;;;;;;19.05;14.93;;;16.80;74.00;;;;;;3917596;30;20019;-69
2023/03/18 05:42:32;;;;;;;18.20;14.48;;;16.80;73.90;;;;;;3917595;30;20058;-68
2023/03/18 05:45:20;;;;;;;21.20;15.23;;;16.70;73.90;;;;;;3927147;30;20547;-68
2023/03/18 05:48:06;;;;;;;19.05;14.80;;;16.70;74.00;;;;;;3899985;30;20516;-67
2023/03/18 05:50:57;;;;;;;19.15;14.07;;;16.80;74.10;;;;;;3917562;30;20059;-67
2023/03/18 05:53:40;;;;;;;21.40;14.70;;;16.80;73.80;;;;;;3917588;30;20825;-67
2023/03/18 05:56:31;;;;;;;20.80;15.48;;;16.90;73.70;;;;;;3917598;30;20393;-67
2023/03/18 05:59:15;;;;;;;19.17;15.85;;;16.90;73.40;;;;;;3917312;30;20077;-66
2023/03/18 06:02:00;;;;;;;17.42;13.48;;;17.00;73.30;;;;;;3914353;30;20588;-67
2023/03/18 06:04:41;;;;;;;20.38;14.40;;;16.90;73.20;;;;;;3903001;30;20142;-67
2023/03/18 06:07:22;;;;;;;19.38;14.65;;;16.90;73.20;;;;;;3910484;30;20063;-67
2023/03/18 06:10:03;;;;;;;21.52;15.25;;;16.90;74.20;;;;;;3917352;30;20377;-67
2023/03/18 06:12:44;;;;;;;20.15;13.90;;;16.90;73.60;;;;;;3917230;30;20063;-67
2023/03/18 06:15:26;;;;;;;;;;;16.80;73.50;;;;;;3917954;30;20189;-66
2023/03/18 06:18:10;;;;;;;22.30;13.73;;;16.70;73.70;;;;;;3917084;30;19933;-66
2023/03/18 06:20:52;;;;;;;18.08;13.27;;;16.70;74.00;;;;;;3902760;30;20063;-67
2023/03/18 06:23:33;;;;;;;20.75;14.38;;;16.70;74.10;;;;;;3902880;30;20064;-67
2023/03/18 06:26:14;;;;;;;16.27;13.77;;;16.60;75.10;;;;;;3904403;30;20178;-66
2023/03/18 06:29:02;;;;;;;18.45;14.20;;;16.60;74.50;;;;;;3911720;30;20063;-66
2023/03/18 06:31:43;;;;;;;19.23;14.50;;;16.60;74.70;;;;;;3917042;30;20063;-66
2023/03/18 06:34:31;;;;;;;17.50;13.82;;;16.70;74.70;;;;;;3917069;30;20097;-66
2023/03/18 06:37:12;;;;;;;17.40;14.07;;;16.70;74.50;;;;;;3914823;30;20133;-66
2023/03/18 06:39:53;;;;;;;18.90;14.02;;;16.70;74.30;;;;;;3927978;30;20063;-66
2023/03/18 06:42:37;;;;;;;17.92;14.80;;;16.70;74.20;;;;;;3916637;30;20063;-66
2023/03/18 06:45:25;;;;;;;18.48;15.23;;;16.70;74.10;;;;;;3916803;30;20507;-66
2023/03/18 06:48:13;;;;;;;18.02;15.02;;;16.70;74.20;;;;;;3902117;30;20567;-66
2023/03/18 06:50:58;;;;;;;19.35;14.73;;;16.70;74.30;;;;;;3902403;30;20063;-66
2023/03/18 06:53:45;;;;;;;18.35;14.65;;;16.70;74.50;;;;;;3912549;30;20136;-65
2023/03/18 06:56:26;;;;;;;;;;;16.80;75.40;;;;;;3916936;30;20627;-66
2023/03/18 06:59:16;;;;;;;17.65;13.90;;;16.90;75.70;;;;;;3913070;30;19933;-66
2023/03/18 07:01:58;;;;;;;17.02;14.57;;;16.90;75.40;;;;;;3916672;30;20063;-66
2023/03/18 07:04:39;;;;;;;19.95;14.80;;;16.90;74.90;;;;;;3916696;30;20093;-66
2023/03/18 07:07:21;;;;;;;20.83;15.47;;;16.90;74.80;;;;;;3927407;30;20193;-66
2023/03/18 07:10:03;;;;;;;20.20;14.98;;;16.90;75.60;;;;;;3921995;30;21121;-67
2023/03/18 07:12:46;;;;;;;19.73;15.60;;;16.80;75.60;;;;;;3901758;30;20145;-67
2023/03/18 07:15:30;;;;;;;21.25;14.43;;;16.80;75.40;;;;;;3906612;30;20070;-67
2023/03/18 07:18:13;;;;;;;19.83;14.05;;;16.80;75.50;;;;;;3916252;30;20062;-66
2023/03/18 07:20:54;;;;;;;20.90;14.05;;;16.80;75.50;;;;;;3904422;30;20527;-67
2023/03/18 07:23:37;;;;;;;22.40;14.43;;;16.80;75.50;;;;;;3907887;30;20478;-68
2023/03/18 07:26:19;;;;;;;20.20;14.20;;;16.80;75.50;;;;;;3916390;30;20075;-66
2023/03/18 07:29:00;;;;;;;20.67;14.90;;;16.80;75.40;;;;;;3915625;30;20118;-67
2023/03/18 07:31:42;;;;;;;;;;;16.80;75.60;;;;;;3913179;30;20418;-66
2023/03/18 07:34:23;;;;;;;23.05;13.90;;;16.80;75.60;;;;;;3912524;30;19937;-67
2023/03/18 07:37:04;;;;;;;21.27;14.02;;;16.80;75.50;;;;;;3901780;30;20067;-66
2023/03/18 07:39:46;;;;;;;21.20;15.13;;;16.80;75.40;;;;;;3911961;30;20071;-66
2023/03/18 07:42:27;;;;;;;22.27;16.05;;;16.80;75.30;;;;;;3915939;30;20064;-66
2023/03/18 07:45:11;;;;;;;22.33;15.35;;;16.80;75.20;;;;;;3910580;30;20501;-66
2023/03/18 07:47:53;;;;;;;18.45;14.55;;;16.70;75.10;;;;;;3912642;30;20075;-66
2023/03/18 07:50:33;;;;;;;19.70;14.48;;;16.80;76.10;;;;;;3897345;30;20130;-66
2023/03/18 07:53:14;;;;;;;20.93;15.57;;;16.80;75.20;;;;;;3898146;30;20150;-66
2023/03/18 07:55:57;;;;;;;21.48;16.05;;;16.80;75.40;;;;;;3898107;30;20315;-66
2023/03/18 07:58:38;;;;;;;33.45;15.73;;;16.70;75.10;;;;;;3898264;30;20064;-67
2023/03/18 08:01:19;;;;;;;19.67;14.10;;;16.70;75.30;;;;;;3898007;30;20513;-67
2023/03/18 08:04:00;;;;;;;20.95;13.93;;;16.70;75.20;;;;;;3899588;30;20068;-67
2023/03/18 08:06:41;;;;;;;21.90;13.98;;;16.70;75.20;;;;;;3912141;30;20063;-67
2023/03/18 08:09:22;;;;;;;26.73;14.45;;;16.60;75.20;;;;;;3912289;30;20485;-67
2023/03/18 08:12:04;;;;;;;19.67;13.93;;;16.60;75.40;;;;;;3899821;30;20081;-68
2023/03/18 08:14:45;;;;;;;21.88;14.13;;;16.60;75.60;;;;;;3912425;30;20302;-68
2023/03/18 08:17:27;;;;;;;24.77;15.35;;;16.60;75.40;;;;;;3912377;30;20198;-68
2023/03/18 08:20:08;;;;;;;33.13;17.30;;;16.70;75.10;;;;;;3912282;30;20066;-68
2023/03/18 08:22:49;;;;;;;26.67;15.57;;;16.70;74.80;;;;;;3900528;30;20138;-68
2023/03/18 08:25:31;;;;;;;43.38;16.00;;;16.80;74.60;;;;;;3910524;30;20629;-68
2023/03/18 08:28:14;;;;;;;25.23;17.67;;;16.80;75.50;;;;;;3912081;30;20067;-68
2023/03/18 08:30:55;;;;;;;19.80;15.43;;;16.80;74.50;;;;;;3912236;30;20504;-68
2023/03/18 08:33:36;;;;;;;40.65;18.38;;;16.80;74.40;;;;;;3911887;30;20512;-68
2023/03/18 08:36:17;;;;;;;26.13;17.00;;;16.80;74.40;;;;;;3911686;30;20056;-68
2023/03/18 08:38:58;;;;;;;53.15;19.80;;;16.80;74.40;;;;;;3910037;30;20355;-69
2023/03/18 08:41:39;;;;;;;53.08;20.23;;;16.80;74.60;;;;;;3921494;30;20055;-75
2023/03/18 08:44:22;;;;;;;46.40;17.55;;;16.80;74.60;;;;;;3925324;30;20066;-76
2023/03/18 08:47:03;;;;;;;141.93;27.25;;;16.80;74.70;;;;;;3932375;30;20059;-75
2023/03/18 08:49:44;;;;;;;84.65;22.38;;;16.70;74.50;;;;;;3926678;30;20105;-75
2023/03/18 08:52:25;;;;;;;44.78;18.17;;;16.70;74.50;;;;;;3931489;30;20181;-76
2023/03/18 08:55:08;;;;;;;29.05;16.80;;;16.60;74.60;;;;;;3934984;30;20067;-76
2023/03/18 08:57:50;;;;;;;28.15;17.55;;;16.70;74.50;;;;;;3938991;30;20078;-76
2023/03/18 09:00:33;;;;;;;22.88;18.20;;;16.60;74.50;;;;;;3934425;30;20055;-75
2023/03/18 09:03:15;;;;;;;25.70;15.88;;;16.60;74.60;;;;;;3913899;30;20491;-76
2023/03/18 09:05:57;;;;;;;21.33;16.88;;;16.60;74.70;;;;;;3916738;30;20077;-77
2023/03/18 09:08:38;;;;;;;;;;;16.60;74.80;;;;;;3913923;30;20125;-76
2023/03/18 09:11:19;;;;;;;22.65;17.02;;;16.60;75.80;;;;;;3934621;30;20263;-76
2023/03/18 09:14:00;;;;;;;22.45;17.38;;;16.50;75.10;;;;;;3933863;30;20067;-76
2023/03/18 09:16:42;;;;;;;25.08;17.67;;;16.50;75.00;;;;;;3919527;30;20064;-76
2023/03/18 09:19:23;;;;;;;23.88;16.63;;;16.50;75.30;;;;;;3934345;30;20148;-75
2023/03/18 09:22:04;;;;;;;23.17;17.35;;;16.50;75.30;;;;;;3910619;30;20063;-70
2023/03/18 09:24:45;;;;;;;22.92;17.73;;;16.50;75.50;;;;;;3936301;30;20058;-70
2023/03/18 09:27:27;;;;;;;22.75;18.20;;;16.50;75.60;;;;;;3929435;30;20067;-72
2023/03/18 09:30:09;;;;;;;19.80;16.88;;;16.40;75.70;;;;;;3934019;30;20454;-72
2023/03/18 09:32:52;;;;;;;25.60;19.30;;;16.40;75.80;;;;;;3936864;30;20062;-72
2023/03/18 09:35:35;;;;;;;43.67;19.35;;;16.40;75.80;;;;;;3935575;30;20090;-74
2023/03/18 09:38:18;;;;;;;76.47;24.45;;;16.40;75.90;;;;;;3936664;30;20055;-69
2023/03/18 09:41:07;;;;;;;21.00;15.95;;;16.40;75.90;;;;;;3939680;30;20062;-69
2023/03/18 09:44:08;;;;;;;20.88;17.75;;;16.40;75.90;;;;;;3926305;30;20059;-70
2023/03/18 09:47:17;;;;;;;24.55;18.10;;;16.40;75.90;;;;;;3926888;30;20669;-69
2023/03/18 09:50:12;;;;;;;25.90;18.98;;;16.40;75.90;;;;;;3926739;30;20068;-69
2023/03/18 09:53:04;;;;;;;50.92;19.10;;;16.40;76.70;;;;;;3932380;30;20189;-70
2023/03/18 09:55:48;;;;;;;40.10;19.00;;;16.40;75.90;;;;;;3904933;30;20114;-69
2023/03/18 09:58:43;;;;;;;37.30;17.95;;;16.40;75.80;;;;;;3926647;30;20386;-69
2023/03/18 10:01:27;;;;;;;26.27;19.65;;;16.40;75.90;;;;;;3929199;30;20075;-70
2023/03/18 10:04:14;;;;;;;21.95;17.73;;;16.40;75.90;;;;;;3936345;30;20078;-69
2023/03/18 10:07:03;;;;;;;22.98;17.40;;;16.40;75.90;;;;;;3926787;30;20066;-69
2023/03/18 10:09:46;;;;;;;24.20;15.40;;;16.40;75.90;;;;;;3937713;30;20116;-70
2023/03/18 10:12:32;;;;;;;25.45;19.52;;;16.40;75.90;;;;;;3935646;30;20059;-70
2023/03/18 10:15:17;;;;;;;21.42;16.90;;;16.50;76.00;;;;;;3933224;30;20120;-70
2023/03/18 10:18:03;;;;;;;28.05;19.00;;;16.50;75.80;;;;;;3925201;30;20055;-70
2023/03/18 10:21:02;;;;;;;25.90;19.85;;;16.50;75.80;;;;;;3921103;30;20189;-69
2023/03/18 10:23:55;;;;;;;24.95;18.75;;;16.70;75.80;;;;;;3929282;30;20113;-73
2023/03/18 10:26:47;;;;;;;55.92;22.17;;;16.80;75.10;;;;;;3935737;30;20530;-70
2023/03/18 10:29:39;;;;;;;28.75;19.60;;;17.00;74.70;;;;;;3935724;30;20067;-69
2023/03/18 10:32:34;;;;;;;30.33;19.45;;;17.10;74.10;;;;;;3924986;30;20058;-70
2023/03/18 10:35:33;;;;;;;27.95;20.33;;;17.20;73.40;;;;;;3928714;30;20198;-69
2023/03/18 10:38:20;;;;;;;23.60;18.23;;;17.30;73.00;;;;;;3934252;30;20813;-69
2023/03/18 10:41:09;;;;;;;27.85;18.95;;;17.40;72.70;;;;;;3939475;30;20058;-69
2023/03/18 10:43:53;;;;;;;27.55;19.40;;;17.50;72.50;;;;;;3927076;30;20183;-69
2023/03/18 10:46:36;;;;;;;25.33;16.83;;;17.50;72.30;;;;;;3925447;30;20050;-69
2023/03/18 10:49:20;;;;;;;21.98;18.00;;;17.60;72.30;;;;;;3904862;30;20073;-70
2023/03/18 10:52:07;;;;;;;19.90;16.75;;;17.60;72.30;;;;;;3924949;30;20055;-69
2023/03/18 10:54:51;;;;;;;34.72;17.70;;;17.60;72.30;;;;;;3933004;30;20491;-70
2023/03/18 10:57:33;;;;;;;20.52;16.60;;;17.60;72.20;;;;;;3923781;30;20059;-70
2023/03/18 11:00:27;;;;;;;22.83;17.25;;;17.60;72.30;;;;;;3923438;30;20067;-69
2023/03/18 11:03:21;;;;;;;23.65;15.95;;;17.60;72.30;;;;;;3924787;30;20492;-70
2023/03/18 11:06:04;;;;;;;23.88;17.90;;;17.60;72.20;;;;;;3927703;30;20086;-70
2023/03/18 11:08:48;;;;;;;20.95;14.98;;;17.60;72.30;;;;;;3933960;30;20189;-70
2023/03/18 11:11:32;;;;;;;22.45;18.95;;;17.60;72.30;;;;;;3924876;30;20075;-70
2023/03/18 11:14:17;;;;;;;22.30;16.90;;;17.60;72.30;;;;;;3937509;30;20071;-70
2023/03/18 11:16:59;;;;;;;22.25;17.08;;;17.60;72.30;;;;;;3939379;30;20097;-70
2023/03/18 11:19:47;;;;;;;21.20;16.67;;;17.60;72.30;;;;;;3918715;30;20139;-70
2023/03/18 11:22:30;;;;;;;34.20;17.00;;;17.70;72.40;;;;;;3936077;30;20054;-69
2023/03/18 11:25:15;;;;;;;21.30;17.08;;;17.70;72.40;;;;;;3935930;30;20071;-70
2023/03/18 11:27:58;;;;;;;23.33;16.65;;;17.70;72.50;;;;;;3927644;30;20200;-70
2023/03/18 11:30:48;;;;;;;19.60;16.08;;;17.70;72.40;;;;;;3907916;30;20077;-70
2023/03/18 11:33:31;;;;;;;19.45;15.07;;;17.70;72.50;;;;;;3927493;30;20066;-70
2023/03/18 11:36:18;;;;;;;22.80;16.02;;;17.70;72.40;;;;;;3934211;30;20068;-70
2023/03/18 11:39:05;;;;;;;20.30;16.95;;;17.70;72.50;;;;;;3929590;30;20135;-69
2023/03/18 11:41:47;;;;;;;21.30;17.75;;;17.70;72.60;;;;;;3928069;30;20133;-70
2023/03/18 11:44:31;;;;;;;23.23;15.15;;;17.70;72.60;;;;;;3932900;30;20059;-69
2023/03/18 11:47:21;;;;;;;17.90;15.02;;;17.70;72.70;;;;;;3919809;30;20533;-70
2023/03/18 11:50:04;;;;;;;22.17;16.75;;;17.60;72.80;;;;;;3930872;30;20059;-69
2023/03/18 11:52:52;;;;;;;21.52;16.42;;;17.60;72.80;;;;;;3934207;30;20440;-69
2023/03/18 11:55:42;;;;;;;20.55;14.93;;;17.70;72.90;;;;;;3932467;30;20073;-69
2023/03/18 11:58:46;;;;;;;21.97;16.90;;;17.60;72.90;;;;;;3934589;30;20050;-69
2023/03/18 12:01:34;;;;;;;19.80;16.52;;;17.60;72.90;;;;;;3920898;30;20062;-69
2023/03/18 12:04:39;;;;;;;23.52;15.30;;;17.60;72.90;;;;;;3923655;30;20149;-69
2023/03/18 12:07:33;;;;;;;16.00;13.43;;;17.60;73.00;;;;;;3924859;30;20074;-69
2023/03/18 12:10:24;;;;;;;16.08;13.32;;;17.60;73.00;;;;;;3927602;30;20083;-69
2023/03/18 12:13:22;;;;;;;16.40;13.63;;;17.60;73.00;;;;;;3933078;30;20470;-69
2023/03/18 12:16:11;;;;;;;19.73;12.93;;;17.60;73.10;;;;;;3923159;30;20186;-69
2023/03/18 12:19:14;;;;;;;19.65;13.68;;;17.60;73.10;;;;;;3913855;30;20397;-69
2023/03/18 12:22:11;;;;;;;15.68;13.82;;;17.60;73.10;;;;;;3912736;30;20443;-73
2023/03/18 12:25:06;;;;;;;19.05;13.85;;;17.60;73.20;;;;;;3923911;30;20109;-72
2023/03/18 12:28:00;;;;;;;20.92;15.45;;;17.60;73.10;;;;;;3935058;30;21498;-71
2023/03/18 12:31:01;;;;;;;17.17;14.70;;;17.60;73.10;;;;;;3910998;30;20074;-71
2023/03/18 12:33:55;;;;;;;17.90;12.25;;;17.60;73.10;;;;;;3919953;30;20058;-72
2023/03/18 12:36:48;;;;;;;16.85;11.48;;;17.60;72.90;;;;;;3939699;30;20507;-72
2023/03/18 12:39:52;;;;;;;14.65;12.45;;;17.70;72.90;;;;;;3938184;30;20059;-71
2023/03/18 12:42:46;;;;;;;16.90;12.63;;;17.70;73.10;;;;;;3926643;30;20213;-71
2023/03/18 12:45:33;;;;;;;25.83;12.68;;;17.70;73.00;;;;;;3928434;30;20056;-71
2023/03/18 12:48:18;;;;;;;25.63;11.38;;;17.70;73.10;;;;;;3923240;30;20063;-71
2023/03/18 12:51:06;;;;;;;18.85;12.30;;;17.80;73.20;;;;;;3929681;30;20063;-70
2023/03/18 12:53:53;;;;;;;18.95;12.65;;;17.80;73.20;;;;;;3928305;30;20058;-71
2023/03/18 12:56:40;;;;;;;30.67;12.98;;;17.80;73.30;;;;;;3917822;30;20099;-71
2023/03/18 12:59:27;;;;;;;18.40;13.43;;;17.80;73.20;;;;;;3926594;30;20059;-71
2023/03/18 13:02:34;;;;;;;12.82;10.20;;;17.70;73.00;;;;;;3929625;30;20063;-71
2023/03/18 13:05:26;;;;;;;11.85;10.65;;;17.80;73.10;;;;;;3915139;30;20170;-71
2023/03/18 13:08:26;;;;;;;14.75;10.52;;;17.80;73.00;;;;;;3926947;30;20433;-71
2023/03/18 13:11:19;;;;;;;12.75;11.05;;;17.80;72.80;;;;;;3930631;30;20059;-71
2023/03/18 13:14:07;;;;;;;14.73;10.85;;;17.80;73.10;;;;;;3923614;30;20538;-71
2023/03/18 13:16:49;;;;;;;13.70;10.40;;;17.80;73.10;;;;;;3940527;30;20527;-72
2023/03/18 13:19:31;;;;;;;13.45;9.05;;;17.80;73.20;;;;;;3929814;30;20189;-71
2023/03/18 13:22:24;;;;;;;;;;;17.80;73.20;;;;;;3938291;30;20121;-72
2023/03/18 13:25:14;;;;;;;9.50;8.60;;;17.80;73.20;;;;;;3934311;30;19937;-72
2023/03/18 13:28:18;;;;;;;8.82;7.90;;;17.80;73.30;;;;;;3931641;30;20066;-72
2023/03/18 13:31:11;;;;;;;12.35;7.53;;;17.80;73.10;;;;;;3934484;30;20066;-73
2023/03/18 13:34:15;;;;;;;9.63;7.88;;;17.80;73.10;;;;;;3915066;30;20054;-73
2023/03/18 13:37:26;;;;;;;11.10;6.63;;;17.80;72.90;;;;;;3929542;30;20062;-69
2023/03/18 13:40:27;;;;;;;7.07;5.60;;;17.80;73.00;;;;;;3932306;30;20088;-69
2023/03/18 13:43:14;;;;;;;21.75;7.90;;;17.80;73.00;;;;;;3925846;30;20063;-70
2023/03/18 13:45:59;;;;;;;8.63;6.72;;;17.80;72.90;;;;;;3926422;30;20118;-69
2023/03/18 13:48:41;;;;;;;7.20;6.47;;;17.80;72.70;;;;;;3926025;30;20067;-70
2023/03/18 13:51:48;;;;;;;18.67;7.82;;;17.80;72.50;;;;;;3925743;30;20062;-70
2023/03/18 13:54:34;;;;;;;5.90;5.30;;;17.80;72.40;;;;;;3935278;30;20064;-71
2023/03/18 13:57:33;;;;;;;8.07;7.22;;;17.80;72.40;;;;;;3929821;30;20060;-70
2023/03/18 14:00:39;;;;;;;7.30;6.45;;;17.80;72.20;;;;;;3935116;30;20725;-69
2023/03/18 14:03:21;;;;;;;8.18;6.03;;;17.80;72.20;;;;;;3934575;30;20059;-70
2023/03/18 14:06:23;;;;;;;6.35;5.70;;;17.80;72.20;;;;;;3933148;30;20063;-69